Time;durP1;ratioP1;P1;durP2;ratioP2;P2;SDS_P1;SDS_P2;PMS_P1;PMS_P2;Temp;Humidity;BMP_temperature;BMP_pressure;BME280_temperature;BME280_humidity;BME280_pressure;Samples;Min_cycle;Max_cycle;Signal;HPM_P1;HPM_P2
2022/04/10 00:02:18;;;;;;;5.05;3.00;;;;;;;8.35;67.06;98631.59;4975007;28;20046;-80
2022/04/10 00:04:44;;;;;;;5.05;2.85;;;;;;;8.36;66.83;98628.13;4975300;28;20057;-76
2022/04/10 00:07:11;;;;;;;4.40;2.97;;;;;;;8.22;66.42;98604.22;4964478;28;20034;-77
2022/04/10 00:09:36;;;;;;;6.55;3.17;;;;;;;8.35;67.07;98621.22;4971798;28;20090;-76
2022/04/10 00:12:03;;;;;;;6.07;2.88;;;;;;;8.40;66.55;98622.00;4950759;28;20034;-79
2022/04/10 00:14:29;;;;;;;6.30;2.92;;;;;;;8.37;66.83;98629.84;4984007;28;20051;-76
2022/04/10 00:16:56;;;;;;;5.43;2.90;;;;;;;8.36;67.28;98609.97;4965282;28;20046;-79
2022/04/10 00:19:23;;;;;;;4.85;2.90;;;;;;;8.33;66.95;98612.63;4968510;28;20413;-77
2022/04/10 00:21:49;;;;;;;4.68;3.10;;;;;;;8.34;67.32;98598.78;4969550;28;20144;-77
2022/04/10 00:24:14;;;;;;;4.57;3.20;;;;;;;8.33;67.28;98591.06;4967948;28;20094;-78
2022/04/10 00:26:40;;;;;;;6.20;2.90;;;;;;;8.25;66.80;98573.91;4969035;28;20494;-77
2022/04/10 00:29:06;;;;;;;5.03;3.00;;;;;;;8.25;67.34;98580.84;4968768;28;20046;-78
2022/04/10 00:31:32;;;;;;;7.03;2.78;;;;;;;8.40;67.33;98603.00;4969612;28;20133;-79
2022/04/10 00:33:58;;;;;;;7.88;3.08;;;;;;;8.31;67.41;98577.28;4960236;28;20504;-80
2022/04/10 00:36:25;;;;;;;4.90;2.90;;;;;;;8.31;67.37;98572.91;4952249;28;20043;-76
2022/04/10 00:38:51;;;;;;;3.90;3.33;;;;;;;8.26;66.90;98567.84;4967726;28;20952;-78
2022/04/10 00:41:17;;;;;;;6.70;3.17;;;;;;;8.27;66.76;98582.50;4969026;28;20046;-77
2022/04/10 00:44:05;;;;;;;4.18;3.10;;;;;;;8.20;67.36;98587.84;4969050;28;20034;-80
2022/04/10 00:46:32;;;;;;;5.43;3.15;;;;;;;8.20;67.49;98587.84;4971057;28;20046;-80
2022/04/10 00:48:58;;;;;;;8.43;3.40;;;;;;;8.16;67.60;98583.59;4986300;28;20049;-75
2022/04/10 00:51:46;;;;;;;6.07;3.75;;;;;;;8.07;67.35;98580.28;4972569;28;20121;-79
2022/04/10 00:54:14;;;;;;;8.07;4.00;;;;;;;7.82;67.50;98559.13;4972113;28;20142;-79
2022/04/10 00:56:41;;;;;;;5.82;3.78;;;;;;;7.86;68.16;98570.28;4970077;28;20049;-77
2022/04/10 00:59:08;;;;;;;5.72;3.90;;;;;;;7.75;68.54;98567.88;4970746;28;21062;-79
2022/04/10 01:01:35;;;;;;;9.50;3.92;;;;;;;7.75;68.70;98573.06;4966122;28;20031;-77
2022/04/10 01:04:06;;;;;;;7.07;3.72;;;;;;;7.68;68.89;98570.59;4985127;28;20053;-77
2022/04/10 01:06:35;;;;;;;8.23;3.60;;;;;;;7.51;68.52;98544.13;4971719;28;20038;-78
2022/04/10 01:09:04;;;;;;;6.00;4.07;;;;;;;7.53;69.59;98556.16;4967223;28;20046;-79
2022/04/10 01:11:30;;;;;;;7.75;4.05;;;;;;;7.36;69.10;98542.66;4983444;28;20098;-79
2022/04/10 01:13:56;;;;;;;8.95;4.47;;;;;;;7.42;69.82;98563.22;4985501;28;20039;-79
2022/04/10 01:16:25;;;;;;;6.50;4.20;;;;;;;7.21;69.37;98549.75;4985751;28;20502;-78
2022/04/10 01:18:51;;;;;;;9.57;4.95;;;;;;;7.26;70.00;98565.22;4970909;28;20141;-75
2022/04/10 01:21:27;;;;;;;8.23;4.10;;;;;;;7.27;69.97;98569.53;4988081;28;20054;-81
2022/04/10 01:23:56;;;;;;;7.68;4.22;;;;;;;7.13;70.20;98568.84;4969253;28;20093;-78
2022/04/10 01:26:26;;;;;;;7.05;4.40;;;;;;;7.13;70.30;98574.03;4967031;28;20050;-80
2022/04/10 01:29:01;;;;;;;7.03;4.45;;;;;;;7.08;70.99;98582.72;4950469;28;20100;-80
2022/04/10 01:31:31;;;;;;;15.20;4.53;;;;;;;7.03;70.97;98588.84;4966267;28;20522;-78
2022/04/10 01:34:01;;;;;;;14.75;5.00;;;;;;;6.84;71.42;98563.22;4983082;28;20045;-81
2022/04/10 01:36:29;;;;;;;9.50;5.13;;;;;;;6.95;72.31;98576.00;4966508;28;20061;-81
2022/04/10 01:38:56;;;;;;;14.48;5.70;;;;;;;6.99;71.85;98579.41;4982787;28;20647;-79
2022/04/10 01:41:25;;;;;;;15.68;5.35;;;;;;;6.90;71.88;98575.22;4966699;28;20568;-82
2022/04/10 01:43:54;;;;;;;12.48;5.78;;;;;;;6.83;73.00;98582.19;4967641;28;20046;-80
2022/04/10 01:46:24;;;;;;;13.68;5.97;;;;;;;6.81;74.08;98573.59;4950217;28;20042;-80
2022/04/10 01:48:50;;;;;;;10.55;5.55;;;;;;;6.67;73.46;98565.19;4969692;28;20046;-80
2022/04/10 01:51:17;;;;;;;14.20;6.75;;;;;;;6.76;74.77;98572.81;4968566;28;20046;-80
2022/04/10 01:53:43;;;;;;;10.57;6.18;;;;;;;6.68;74.12;98548.78;4967269;28;20705;-79
2022/04/10 01:56:10;;;;;;;22.17;7.35;;;;;;;6.74;74.49;98566.78;4982578;28;20833;-81
2022/04/10 01:58:41;;;;;;;10.70;6.15;;;;;;;6.55;75.31;98530.00;4958379;28;20447;-78
2022/04/10 02:01:11;;;;;;;12.33;6.00;;;;;;;6.67;75.35;98544.50;4983239;28;20073;-81
2022/04/10 02:03:37;;;;;;;10.82;6.75;;;;;;;6.69;75.21;98550.50;4966794;28;20347;-81
2022/04/10 02:06:07;;;;;;;10.35;6.47;;;;;;;6.71;76.07;98541.84;4969017;28;20042;-81
2022/04/10 02:08:37;;;;;;;11.98;6.43;;;;;;;6.73;76.10;98531.50;4948947;28;20668;-80
2022/04/10 02:11:14;;;;;;;13.30;7.28;;;;;;;6.86;76.81;98540.78;4983171;28;20101;-78
2022/04/10 02:13:43;;;;;;;10.30;6.47;;;;;;;6.80;76.31;98535.69;4966814;28;20046;-76
2022/04/10 02:16:14;;;;;;;15.68;7.32;;;;;;;6.93;76.63;98538.97;4951698;28;20039;-82
2022/04/10 02:18:40;;;;;;;20.43;8.40;;;;;;;6.89;76.64;98540.75;4970309;28;20071;-77
2022/04/10 02:21:07;;;;;;;10.85;6.30;;;;;;;7.01;77.04;98533.69;4972855;28;22335;-78
2022/04/10 02:23:35;;;;;;;13.77;7.75;;;;;;;7.03;76.85;98524.16;4974509;28;20405;-76
2022/04/10 02:26:01;;;;;;;12.48;6.93;;;;;;;7.08;76.59;98525.78;4972061;28;20042;-75
2022/04/10 02:28:27;;;;;;;11.35;6.88;;;;;;;7.04;76.40;98531.91;4970564;28;20153;-78
2022/04/10 02:30:53;;;;;;;12.43;6.95;;;;;;;6.91;76.73;98535.53;4953431;28;20082;-80
2022/04/10 02:33:20;;;;;;;14.23;7.50;;;;;;;6.91;77.48;98539.00;4972473;28;20043;-77
2022/04/10 02:35:46;;;;;;;17.27;7.90;;;;;;;6.93;77.43;98531.19;4959297;28;20137;-81
2022/04/10 02:38:13;;;;;;;12.95;7.25;;;;;;;6.84;77.72;98511.50;4987844;28;20043;-75
2022/04/10 02:40:40;;;;;;;11.70;6.65;;;;;;;6.93;77.04;98515.69;4977402;28;20098;-79
2022/04/10 02:43:08;;;;;;;12.90;7.22;;;;;;;6.67;77.58;98482.47;4971188;28;20142;-81
2022/04/10 02:45:34;;;;;;;11.02;7.13;;;;;;;6.95;77.73;98531.19;4951060;28;20097;-77
2022/04/10 02:48:00;;;;;;;13.55;6.65;;;;;;;6.89;77.63;98532.13;4973858;28;20434;-78
2022/04/10 02:50:26;;;;;;;16.23;7.40;;;;;;;6.74;78.41;98499.56;4961182;28;20138;-77
2022/04/10 02:52:53;;;;;;;11.50;7.45;;;;;;;6.88;78.59;98522.66;4969830;28;20070;-79
2022/04/10 02:55:19;;;;;;;12.23;6.57;;;;;;;6.89;77.38;98545.03;4954630;28;20057;-79
2022/04/10 02:58:04;;;;;;;14.05;7.15;;;;;;;6.72;77.79;98524.63;4971103;28;20109;-80
2022/04/10 03:00:48;;;;;;;13.07;7.18;;;;;;;6.74;78.03;98520.25;4969485;28;20054;-81
2022/04/10 03:03:33;;;;;;;13.38;7.65;;;;;;;6.77;78.43;98512.47;4970310;28;20057;-79
2022/04/10 03:06:17;;;;;;;11.75;7.70;;;;;;;6.91;78.33;98530.38;4970131;28;20096;-78
2022/04/10 03:09:04;;;;;;;10.68;6.50;;;;;;;6.83;78.62;98521.88;4957062;28;20154;-80
2022/04/10 03:11:49;;;;;;;12.48;6.85;;;;;;;6.87;79.06;98524.41;4983841;28;20078;-79
2022/04/10 03:14:35;;;;;;;11.70;7.13;;;;;;;7.01;78.52;98544.03;5003854;28;20050;-79
2022/04/10 03:17:20;;;;;;;11.40;7.20;;;;;;;7.05;78.43;98537.94;4969480;28;20050;-76
2022/04/10 03:20:05;;;;;;;12.07;8.10;;;;;;;7.17;78.78;98550.66;4997412;28;20537;-78
2022/04/10 03:22:50;;;;;;;12.25;7.35;;;;;;;7.15;79.11;98529.16;4976976;28;20629;-79
2022/04/10 03:25:35;;;;;;;13.57;8.00;;;;;;;7.29;78.79;98546.19;4958775;28;20053;-77
2022/04/10 03:28:20;;;;;;;12.00;7.47;;;;;;;7.16;77.80;98546.41;4970022;28;20054;-77
2022/04/10 03:31:05;;;;;;;11.50;7.20;;;;;;;7.04;78.75;98538.81;4971237;28;20569;-80
2022/04/10 03:33:50;;;;;;;13.60;7.90;;;;;;;7.09;78.19;98542.19;4988535;28;20106;-75
2022/04/10 03:36:35;;;;;;;11.82;8.00;;;;;;;7.08;79.22;98520.63;4979411;28;20048;-77
2022/04/10 03:39:20;;;;;;;15.00;7.57;;;;;;;7.21;78.17;98547.16;4985120;28;20049;-79
2022/04/10 03:42:05;;;;;;;11.07;8.32;;;;;;;7.19;78.85;98537.72;4989386;28;20081;-75
2022/04/10 03:44:51;;;;;;;17.42;9.27;;;;;;;7.20;78.81;98532.53;4991342;28;20082;-79
2022/04/10 03:47:37;;;;;;;12.65;8.10;;;;;;;7.26;78.48;98539.34;5004148;28;20037;-78
2022/04/10 03:50:22;;;;;;;11.73;7.80;;;;;;;7.36;78.40;98545.25;4991565;28;20086;-75
2022/04/10 03:53:06;;;;;;;15.05;8.23;;;;;;;7.23;78.62;98504.00;4982681;28;20048;-77
2022/04/10 03:55:51;;;;;;;13.00;7.80;;;;;;;7.39;78.96;98534.84;4993567;28;20062;-78
2022/04/10 03:58:37;;;;;;;13.68;8.48;;;;;;;7.51;78.89;98539.81;4994951;28;20045;-75
2022/04/10 04:01:21;;;;;;;13.77;8.27;;;;;;;7.53;78.80;98545.81;4982887;28;20067;-81
2022/04/10 04:04:06;;;;;;;14.38;7.97;;;;;;;7.33;78.77;98524.56;4987554;28;20037;-77
2022/04/10 04:06:51;;;;;;;13.15;8.60;;;;;;;7.38;78.36;98548.66;4990852;28;20050;-79
2022/04/10 04:09:37;;;;;;;13.25;8.48;;;;;;;7.36;79.01;98548.66;5003116;28;20074;-78
2022/04/10 04:12:22;;;;;;;15.73;8.98;;;;;;;7.39;79.37;98546.03;5000469;28;20042;-76
2022/04/10 04:15:07;;;;;;;14.27;8.43;;;;;;;7.35;78.26;98546.94;5003516;28;20049;-77
2022/04/10 04:17:53;;;;;;;10.57;7.50;;;;;;;7.40;78.52;98567.59;4972590;28;20086;-80
2022/04/10 04:20:38;;;;;;;15.05;9.45;;;;;;;7.13;78.80;98519.72;4981705;28;20422;-77
2022/04/10 04:23:23;;;;;;;13.48;8.55;;;;;;;7.43;78.37;98564.94;4997692;28;20109;-76
2022/04/10 04:26:10;;;;;;;11.98;8.40;;;;;;;7.43;78.99;98570.13;4978398;28;20061;-79
2022/04/10 04:28:56;;;;;;;12.30;8.50;;;;;;;7.43;79.09;98577.88;4970307;28;20053;-78
2022/04/10 04:31:42;;;;;;;11.63;8.63;;;;;;;7.46;78.62;98577.00;4956133;28;20049;-79
2022/04/10 04:34:27;;;;;;;13.07;8.80;;;;;;;7.41;78.99;98563.28;4971612;28;20069;-78
2022/04/10 04:37:13;;;;;;;13.73;8.65;;;;;;;7.52;79.21;98579.47;4982829;28;20517;-79
2022/04/10 04:39:58;;;;;;;13.10;7.88;;;;;;;7.58;78.89;98574.22;4978554;28;20550;-80
2022/04/10 04:42:43;;;;;;;11.27;7.68;;;;;;;7.65;78.82;98587.91;4984919;28;20541;-79
2022/04/10 04:45:28;;;;;;;12.65;8.75;;;;;;;7.69;79.30;98586.97;4984749;28;20116;-79
2022/04/10 04:48:24;;;;;;;13.05;8.40;;;;;;;7.78;78.92;98583.38;4971779;28;20094;-76
2022/04/10 04:51:14;;;;;;;12.07;7.78;;;;;;;7.89;78.87;98598.72;4970385;28;20089;-79
2022/04/10 04:53:58;;;;;;;10.88;7.70;;;;;;;7.86;78.47;98591.00;4983620;28;20049;-81
2022/04/10 04:56:43;;;;;;;11.27;7.75;;;;;;;7.74;78.71;98579.13;4966981;28;20053;-80
2022/04/10 04:59:27;;;;;;;13.07;8.05;;;;;;;7.73;78.61;98570.50;4969881;28;20048;-79
2022/04/10 05:02:14;;;;;;;13.00;7.45;;;;;;;7.79;78.89;98578.19;4967389;28;20050;-80
2022/04/10 05:04:59;;;;;;;11.90;7.75;;;;;;;7.75;78.75;98576.53;4968335;28;20058;-78
2022/04/10 05:07:46;;;;;;;13.07;8.73;;;;;;;7.74;78.73;98569.63;4967501;28;20055;-81
2022/04/10 05:10:31;;;;;;;14.85;8.65;;;;;;;7.94;78.85;98605.56;4953830;28;20214;-82
2022/04/10 05:13:16;;;;;;;13.18;8.27;;;;;;;7.90;78.90;98598.72;4981035;28;20410;-77
2022/04/10 05:16:03;;;;;;;12.43;8.65;;;;;;;7.91;78.43;98612.50;4982223;28;20463;-82
2022/04/10 05:18:52;;;;;;;13.45;7.88;;;;;;;8.03;78.52;98614.91;4982044;28;20493;-79
2022/04/10 05:21:41;;;;;;;11.80;7.95;;;;;;;8.07;78.75;98626.91;4981750;28;20081;-78
2022/04/10 05:24:26;;;;;;;12.45;8.07;;;;;;;7.95;78.71;98596.88;4971680;28;20057;-79
2022/04/10 05:27:10;;;;;;;12.63;8.90;;;;;;;8.15;78.52;98621.63;4971797;28;20524;-77
2022/04/10 05:29:55;;;;;;;11.15;8.25;;;;;;;8.03;78.59;98599.38;4982757;28;20105;-80
2022/04/10 05:32:43;;;;;;;11.90;8.43;;;;;;;8.18;78.58;98628.47;4982328;28;20529;-81
2022/04/10 05:35:29;;;;;;;11.35;7.65;;;;;;;8.20;78.71;98637.91;4968654;28;20109;-79
2022/04/10 05:38:14;;;;;;;13.32;8.80;;;;;;;8.18;78.63;98628.47;4985549;28;20049;-80
2022/04/10 05:40:59;;;;;;;12.32;8.32;;;;;;;8.18;78.78;98618.09;4979255;28;20072;-77
2022/04/10 05:43:49;;;;;;;13.48;8.35;;;;;;;8.29;79.04;98626.53;4991220;28;20073;-79
2022/04/10 05:46:44;;;;;;;13.63;9.00;;;;;;;8.40;78.79;98623.72;4987553;28;20057;-80
2022/04/10 05:49:31;;;;;;;12.48;7.93;;;;;;;8.54;78.64;98650.31;4995574;28;20133;-80
2022/04/10 05:52:16;;;;;;;10.95;7.72;;;;;;;8.64;78.65;98640.59;4972014;28;20050;-78
2022/04/10 05:55:01;;;;;;;11.65;8.18;;;;;;;8.67;78.37;98645.75;4970828;28;20062;-78
2022/04/10 05:57:48;;;;;;;10.73;7.75;;;;;;;8.81;78.57;98657.56;4969217;28;20166;-84
2022/04/10 06:00:34;;;;;;;10.57;7.95;;;;;;;8.72;78.25;98637.84;4965139;28;20155;-81
2022/04/10 06:03:29;;;;;;;12.85;8.27;;;;;;;8.60;78.32;98602.66;4967288;28;20069;-79
2022/04/10 06:06:18;;;;;;;11.70;8.13;;;;;;;8.89;78.21;98658.28;4984012;28;20454;-79
2022/04/10 06:09:13;;;;;;;11.25;7.10;;;;;;;8.90;78.42;98644.44;4973713;28;20478;-81
2022/04/10 06:11:58;;;;;;;9.85;7.13;;;;;;;9.19;78.13;98677.56;4985067;28;20097;-79
2022/04/10 06:14:45;;;;;;;12.85;8.00;;;;;;;9.26;78.08;98673.06;4976501;28;20058;-80
2022/04/10 06:17:18;;;;;;;12.93;7.85;;;;;;;9.38;77.98;98684.94;4950422;28;20058;-76
2022/04/10 06:19:47;;;;;;;11.45;7.95;;;;;;;9.10;77.28;98649.19;4968754;28;20058;-79
2022/04/10 06:22:16;;;;;;;13.40;8.60;;;;;;;8.50;77.41;98554.44;4968288;28;20038;-80
2022/04/10 06:24:45;;;;;;;13.40;8.60;;;;;;;8.81;77.41;98609.16;4988821;28;20414;-84
2022/04/10 06:27:11;;;;;;;11.38;8.27;;;;;;;9.40;77.53;98697.88;4956485;28;20043;-76
2022/04/10 06:30:21;;;;;;;14.95;8.85;;;;;;;9.50;77.49;98713.22;4973792;28;20035;-82
2022/04/10 06:33:10;;;;;;;13.70;8.07;;;;;;;9.52;77.03;98721.00;4970328;28;20073;-79
2022/04/10 06:35:37;;;;;;;12.65;8.65;;;;;;;9.50;77.16;98723.59;4972389;28;20104;-78
2022/04/10 06:38:26;;;;;;;13.57;7.97;;;;;;;9.38;76.74;98710.06;4973539;28;20046;-80
2022/04/10 06:41:10;;;;;;;12.75;8.48;;;;;;;9.37;76.96;98729.97;4974497;28;20089;-78
2022/04/10 06:43:38;;;;;;;12.68;9.07;;;;;;;9.37;77.25;98731.72;4989808;28;20578;-82
2022/04/10 06:46:26;;;;;;;13.23;8.52;;;;;;;9.42;77.37;98715.16;4981178;28;20510;-81
2022/04/10 06:49:07;;;;;;;12.80;8.05;;;;;;;9.46;76.85;98716.78;4975719;28;20051;-77
2022/04/10 06:51:33;;;;;;;13.73;8.20;;;;;;;9.39;77.33;98717.81;4967855;28;20184;-81
2022/04/10 06:54:07;;;;;;;13.30;8.95;;;;;;;9.36;77.28;98704.88;4957911;28;20518;-77
2022/04/10 06:56:34;;;;;;;14.27;8.98;;;;;;;9.55;77.14;98731.31;4946164;28;20047;-76
2022/04/10 06:59:01;;;;;;;16.38;10.23;;;;;;;9.64;77.45;98732.84;4972704;28;20050;-80
2022/04/10 07:01:36;;;;;;;13.30;9.40;;;;;;;9.68;77.31;98731.03;4971674;28;20057;-79
2022/04/10 07:04:06;;;;;;;14.18;9.23;;;;;;;9.32;77.12;98654.78;4972867;28;20051;-78
2022/04/10 07:06:34;;;;;;;18.30;11.63;;;;;;;9.67;77.10;98699.03;4938744;28;20047;-81
2022/04/10 07:09:00;;;;;;;18.10;12.48;;;;;;;9.13;77.09;98602.41;4977682;28;20085;-78
2022/04/10 07:11:33;;;;;;;14.27;9.18;;;;;;;10.11;76.80;98758.63;4957158;28;20039;-77
2022/04/10 07:14:02;;;;;;;14.73;8.30;;;;;;;10.08;76.52;98762.16;4959634;28;20051;-82
2022/04/10 07:16:28;;;;;;;18.23;9.57;;;;;;;10.04;76.86;98760.53;4961347;28;20071;-81
2022/04/10 07:19:06;;;;;;;13.63;9.07;;;;;;;9.92;76.83;98735.69;4977317;28;20514;-80
2022/04/10 07:24:20;;;;;;;18.65;11.02;;;;;;;10.29;76.82;98796.34;4982388;28;20035;-78
2022/04/10 07:26:54;;;;;;;18.90;9.70;;;;;;;9.65;76.62;98680.03;4975036;28;20035;-77
2022/04/10 07:29:31;;;;;;;13.52;8.82;;;;;;;9.85;75.97;98722.88;4986385;28;20577;-80
2022/04/10 07:31:58;;;;;;;16.02;8.18;;;;;;;10.36;75.83;98823.94;4959355;28;20073;-80
2022/04/10 07:34:32;;;;;;;11.00;7.32;;;;;;;9.83;75.96;98737.63;4958554;28;20044;-81
2022/04/10 07:37:10;;;;;;;8.73;6.65;;;;;;;10.36;76.27;98834.34;4995810;28;20486;-80
2022/04/10 07:39:58;;;;;;;9.07;6.22;;;;;;;9.89;76.37;98729.72;4993881;28;20046;-80
2022/04/10 07:42:39;;;;;;;;;;;;;;;10.48;75.68;98830.59;5014161;28;20107;-76
2022/04/10 07:45:10;;;;;;;5.90;4.82;;;;;;;10.35;75.72;98813.53;4984433;28;20016;-79
2022/04/10 07:47:54;;;;;;;5.97;4.88;;;;;;;9.49;75.51;98676.91;4977698;28;20043;-83
2022/04/10 07:50:20;;;;;;;4.40;3.95;;;;;;;10.38;75.18;98847.28;4977038;28;20101;-82
2022/04/10 07:52:56;;;;;;;4.60;3.55;;;;;;;9.94;75.07;98790.19;4974519;28;20053;-78
2022/04/10 07:55:40;;;;;;;3.83;2.55;;;;;;;9.48;74.81;98753.09;4947458;28;20161;-79
2022/04/10 07:58:42;;;;;;;;;;;;;;;;;;;;;
2022/04/10 08:01:31;;;;;;;1.60;1.40;;;;;;;9.81;75.04;98870.19;4982139;28;20047;-80
2022/04/10 08:04:29;;;;;;;1.30;1.20;;;;;;;9.69;74.00;98893.81;4975392;28;20073;-80
2022/04/10 08:07:29;;;;;;;1.58;1.23;;;;;;;9.17;73.85;98819.47;4959163;29;20577;-81
2022/04/10 08:09:58;;;;;;;1.63;1.25;;;;;;;8.76;73.99;98737.22;4976270;28;20083;-79
2022/04/10 08:12:25;;;;;;;1.35;1.25;;;;;;;9.81;74.34;98914.38;4958932;28;20035;-77
2022/04/10 08:14:55;;;;;;;3.67;1.20;;;;;;;9.65;73.24;98899.06;4961504;28;20177;-75
2022/04/10 08:17:22;;;;;;;1.95;1.35;;;;;;;9.32;74.15;98839.09;4976037;28;20043;-78
2022/04/10 08:19:51;;;;;;;2.00;1.50;;;;;;;9.50;73.49;98847.41;4962824;28;20083;-79
2022/04/10 08:22:24;;;;;;;5.38;2.30;;;;;;;10.12;73.74;98931.91;4970279;28;20093;-79
2022/04/10 08:25:41;;;;;;;3.65;1.65;;;;;;;10.04;73.41;98905.25;4965183;28;20077;-83
2022/04/10 08:28:11;;;;;;;8.57;3.20;;;;;;;10.29;73.14;98933.28;4971084;28;20085;-82
2022/04/10 08:31:06;;;;;;;4.28;1.70;;;;;;;10.39;72.80;98927.06;4971438;28;20039;-80
2022/04/10 08:33:39;;;;;;;3.97;2.35;;;;;;;10.54;72.34;98924.09;4964437;28;20061;-79
2022/04/10 08:36:37;;;;;;;10.30;4.30;;;;;;;10.69;72.11;98935.06;4973003;28;20081;-80
2022/04/10 08:39:48;;;;;;;9.50;4.22;;;;;;;11.06;72.29;98954.13;4956051;28;20046;-81
2022/04/10 08:42:18;;;;;;;3.67;2.20;;;;;;;10.27;71.68;98803.34;4973044;28;20042;-80
2022/04/10 08:44:54;;;;;;;4.40;1.65;;;;;;;10.99;71.04;98932.59;4958265;28;20050;-81
2022/04/10 08:47:58;;;;;;;4.53;1.90;;;;;;;10.72;70.89;98876.88;4959764;28;20063;-78
2022/04/10 08:50:30;;;;;;;3.35;1.60;;;;;;;10.95;70.35;98920.53;4971248;28;20498;-79
2022/04/10 08:53:17;;;;;;;8.73;3.58;;;;;;;10.61;70.27;98867.56;4966161;28;20376;-81
2022/04/10 08:55:44;;;;;;;14.27;10.95;;;;;;;10.97;69.78;98956.09;4971772;28;20047;-81
2022/04/10 08:58:10;;;;;;;3.72;1.70;;;;;;;11.17;69.64;98993.78;4975554;28;20533;-79
2022/04/10 09:00:36;;;;;;;1.98;1.30;;;;;;;11.03;69.49;98978.50;4992437;28;20033;-79
2022/04/10 09:03:04;;;;;;;4.38;2.08;;;;;;;11.04;69.61;98966.31;5004853;28;20047;-80
2022/04/10 09:05:30;;;;;;;3.85;1.55;;;;;;;11.13;68.94;98971.31;4973234;28;20098;-79
2022/04/10 09:08:16;;;;;;;3.05;1.50;;;;;;;11.37;68.49;99008.91;4974290;28;20042;-79
2022/04/10 09:10:53;;;;;;;2.75;1.50;;;;;;;11.34;68.05;99002.94;4974155;28;20113;-77
2022/04/10 09:13:33;;;;;;;1.92;1.48;;;;;;;11.41;67.95;99000.13;4991935;28;20050;-78
2022/04/10 09:16:25;;;;;;;2.83;1.73;;;;;;;11.35;66.96;98994.22;4977507;28;20047;-78
2022/04/10 09:18:54;;;;;;;4.13;1.58;;;;;;;11.43;66.81;99015.75;4977602;28;20070;-80
2022/04/10 09:21:33;;;;;;;3.55;1.90;;;;;;;11.37;66.06;99001.09;4996723;28;20109;-79
2022/04/10 09:24:07;;;;;;;1.55;1.30;;;;;;;11.46;65.42;99020.88;4980007;28;20100;-77
2022/04/10 09:26:48;;;;;;;2.55;1.80;;;;;;;11.35;65.34;99018.53;4979831;28;20056;-78
2022/04/10 09:29:57;;;;;;;1.52;1.40;;;;;;;11.27;65.43;99005.69;4977051;28;20053;-78
2022/04/10 09:32:43;;;;;;;1.63;1.40;;;;;;;11.70;64.64;99041.97;4974043;28;20045;-81
2022/04/10 09:35:18;;;;;;;2.42;1.60;;;;;;;11.74;64.22;99059.25;4960932;28;20043;-80
2022/04/10 09:37:53;;;;;;;2.38;2.10;;;;;;;11.67;63.46;99047.28;4992517;28;20355;-79
2022/04/10 09:40:32;;;;;;;2.47;1.80;;;;;;;11.83;62.98;99071.19;4976538;28;20034;-77
2022/04/10 09:43:04;;;;;;;3.25;1.80;;;;;;;11.93;63.07;99072.69;4979410;28;20043;-78
2022/04/10 09:45:30;;;;;;;3.30;1.98;;;;;;;11.88;62.57;99075.41;4982993;28;20096;-78
2022/04/10 09:47:57;;;;;;;3.20;2.00;;;;;;;11.77;62.53;99079.19;4989649;28;20027;-78
2022/04/10 09:50:36;;;;;;;2.65;2.05;;;;;;;11.76;61.73;99091.34;4988619;28;20047;-79
2022/04/10 09:53:11;;;;;;;2.58;2.15;;;;;;;11.62;61.63;99081.25;4989819;28;20042;-76
2022/04/10 09:55:43;;;;;;;5.28;2.10;;;;;;;11.23;61.83;99031.84;4987648;28;20043;-79
2022/04/10 09:58:22;;;;;;;2.28;2.05;;;;;;;11.95;61.73;99096.09;4981831;28;20996;-79
2022/04/10 10:00:54;;;;;;;2.28;1.98;;;;;;;12.02;61.02;99075.09;4956446;28;20130;-77
2022/04/10 10:03:29;;;;;;;2.10;1.90;;;;;;;11.74;60.03;99020.16;4976543;28;20046;-78
2022/04/10 10:05:59;;;;;;;2.50;1.75;;;;;;;11.41;60.49;98966.28;4975081;28;20077;-78
2022/04/10 10:08:28;;;;;;;4.20;2.10;;;;;;;12.54;60.58;99126.72;4976631;28;20046;-79
2022/04/10 10:10:57;;;;;;;1.95;1.80;;;;;;;12.37;59.79;99061.13;4987854;28;20049;-80
2022/04/10 10:13:27;;;;;;;2.83;2.25;;;;;;;12.75;59.45;99113.97;4974842;28;20074;-79
2022/04/10 10:15:55;;;;;;;2.42;2.22;;;;;;;12.56;59.62;99098.84;4970271;28;20042;-77
2022/04/10 10:18:27;;;;;;;3.08;2.08;;;;;;;12.71;58.83;99101.91;4986348;28;20154;-80
2022/04/10 10:21:03;;;;;;;2.47;2.28;;;;;;;12.45;58.59;99074.81;4964920;28;20089;-78
2022/04/10 10:23:36;;;;;;;3.22;2.33;;;;;;;12.29;58.17;99058.72;4970824;28;20038;-78
2022/04/10 10:26:09;;;;;;;10.57;2.60;;;;;;;12.80;58.19;99128.59;4976777;28;20058;-80
2022/04/10 10:29:09;;;;;;;4.00;2.15;;;;;;;12.50;58.19;99065.06;4972529;28;20585;-80
2022/04/10 10:32:15;;;;;;;3.65;2.63;;;;;;;13.33;57.88;99134.03;4976373;28;20065;-77
2022/04/10 10:34:43;;;;;;;2.50;2.30;;;;;;;13.07;57.21;99073.84;4955371;28;20130;-79
2022/04/10 10:37:25;;;;;;;3.30;3.00;;;;;;;12.88;56.49;99043.97;4992349;28;20042;-79
2022/04/10 10:39:52;;;;;;;;;;;;;;;13.52;56.79;99156.13;4990017;28;20046;-78
2022/04/10 10:42:19;;;;;;;4.38;3.78;;;;;;;13.53;56.24;99164.81;4978178;28;20373;-76
2022/04/10 10:44:54;;;;;;;2.80;2.50;;;;;;;13.42;55.92;99174.75;4970759;28;20143;-80
2022/04/10 10:47:29;;;;;;;6.68;3.42;;;;;;;13.18;56.09;99167.56;4972294;28;20556;-77
2022/04/10 10:49:55;;;;;;;3.33;2.65;;;;;;;13.01;56.12;99147.19;4981406;28;20066;-78
2022/04/10 10:52:27;;;;;;;3.05;2.50;;;;;;;12.80;56.20;99106.88;4971436;28;20035;-78
2022/04/10 10:54:56;;;;;;;4.28;2.75;;;;;;;13.02;55.68;99134.97;4969142;28;20160;-77
2022/04/10 10:57:42;;;;;;;4.88;2.97;;;;;;;12.87;55.72;99103.19;4976597;28;20046;-77
2022/04/10 11:00:21;;;;;;;3.42;2.78;;;;;;;13.30;55.88;99178.56;4972628;28;20046;-77
2022/04/10 11:02:52;;;;;;;10.13;7.88;;;;;;;13.40;55.24;99203.50;4953671;28;20045;-78
2022/04/10 11:05:35;;;;;;;3.55;2.38;;;;;;;13.22;55.45;99174.41;4986460;28;20073;-83
2022/04/10 11:08:17;;;;;;;2.90;2.70;;;;;;;13.43;55.46;99190.38;4971495;28;20034;-81
2022/04/10 11:11:04;;;;;;;3.10;2.53;;;;;;;13.13;54.87;99119.81;4973781;28;20043;-78
2022/04/10 11:13:42;;;;;;;6.63;3.05;;;;;;;13.20;54.82;99104.81;4981806;28;20406;-81
2022/04/10 11:16:10;;;;;;;4.38;2.90;;;;;;;13.67;54.55;99193.13;4964941;28;20070;-78
2022/04/10 11:18:43;;;;;;;4.00;2.72;;;;;;;13.68;54.46;99179.16;4976322;28;20045;-77
2022/04/10 11:21:19;;;;;;;3.55;3.13;;;;;;;13.78;54.65;99180.59;4976405;28;20054;-79
2022/04/10 11:23:47;;;;;;;4.18;3.42;;;;;;;13.87;54.51;99189.91;4961679;28;20062;-82
2022/04/10 11:26:20;;;;;;;3.40;3.10;;;;;;;13.77;53.95;99206.75;4960047;28;20528;-82
2022/04/10 11:29:07;;;;;;;4.30;3.55;;;;;;;13.56;54.09;99169.94;4974407;28;20510;-81
2022/04/10 11:31:40;;;;;;;3.92;3.58;;;;;;;13.55;54.06;99176.06;4975475;28;20057;-77
2022/04/10 11:34:25;;;;;;;4.85;3.90;;;;;;;13.43;53.62;99176.47;4973912;28;21001;-80
2022/04/10 11:36:55;;;;;;;4.47;3.75;;;;;;;13.37;53.54;99203.56;4989751;28;20049;-81
2022/04/10 11:39:41;;;;;;;4.40;4.00;;;;;;;13.20;53.99;99198.88;4973597;28;20038;-81
2022/04/10 11:42:08;;;;;;;3.67;3.33;;;;;;;13.03;53.54;99196.75;4973818;28;20043;-80
2022/04/10 11:44:39;;;;;;;3.50;3.10;;;;;;;12.94;53.92;99193.47;4970877;28;20043;-81
2022/04/10 11:47:08;;;;;;;5.40;3.15;;;;;;;12.94;54.01;99203.91;4972399;28;20047;-79
2022/04/10 11:49:36;;;;;;;4.30;3.08;;;;;;;12.92;53.78;99187.44;4992480;28;20062;-80
2022/04/10 11:52:56;;;;;;;7.18;3.40;;;;;;;13.00;53.59;99200.31;4996493;28;20143;-80
2022/04/10 11:55:41;;;;;;;7.45;3.65;;;;;;;12.98;53.19;99209.06;4975469;28;20078;-83
2022/04/10 11:58:19;;;;;;;5.57;3.58;;;;;;;12.85;53.17;99193.75;4991523;28;20050;-77
2022/04/10 12:00:53;;;;;;;6.15;4.05;;;;;;;12.54;53.39;99160.66;4976493;28;20209;-78
2022/04/10 12:03:24;;;;;;;4.35;3.95;;;;;;;12.89;53.55;99218.00;4959424;28;20068;-82
2022/04/10 12:05:51;;;;;;;3.88;3.53;;;;;;;12.69;53.77;99202.91;4990451;28;20043;-79
2022/04/10 12:08:25;;;;;;;4.30;3.33;;;;;;;12.78;53.40;99233.97;4977014;28;20129;-82
2022/04/10 12:11:00;;;;;;;4.07;3.67;;;;;;;12.61;53.53;99229.19;4974085;28;20145;-79
2022/04/10 12:13:49;;;;;;;5.03;3.30;;;;;;;12.56;53.38;99237.16;4973907;28;20053;-79
2022/04/10 12:16:18;;;;;;;3.80;3.40;;;;;;;12.30;53.39;99217.78;4998149;28;20042;-81
2022/04/10 12:18:53;;;;;;;4.68;3.50;;;;;;;12.43;53.58;99248.81;5001970;28;20049;-76
2022/04/10 12:21:23;;;;;;;4.38;3.17;;;;;;;12.35;53.57;99246.41;4955908;29;20077;-78
2022/04/10 12:24:08;;;;;;;6.80;3.45;;;;;;;11.94;53.56;99194.31;4934705;29;20074;-84
2022/04/10 12:26:47;;;;;;;6.07;4.93;;;;;;;11.89;53.50;99189.22;4953459;28;20072;-82